createdAt,value
2023-05-12T00:01:17.778Z,9.82
2023-05-12T00:03:44.892Z,9.82
2023-05-12T00:06:12.603Z,9.84
2023-05-12T00:08:39.464Z,9.84
2023-05-12T00:11:06.338Z,9.83
2023-05-12T00:13:33.417Z,9.80
2023-05-12T00:16:00.725Z,9.79
2023-05-12T00:18:28.753Z,9.82
2023-05-12T00:20:56.067Z,9.85
2023-05-12T00:23:23.436Z,9.86
2023-05-12T00:25:50.534Z,9.86
2023-05-12T00:28:18.402Z,9.85
2023-05-12T00:30:45.808Z,9.82
2023-05-12T00:33:12.832Z,9.79
2023-05-12T00:35:39.873Z,9.75
2023-05-12T00:38:06.780Z,9.71
2023-05-12T00:40:33.882Z,9.65
2023-05-12T00:43:00.722Z,9.60
2023-05-12T00:45:29.950Z,9.58
2023-05-12T00:47:57.329Z,9.56
2023-05-12T00:50:24.530Z,9.54
2023-05-12T00:52:51.366Z,9.52
2023-05-12T00:55:18.257Z,9.46
2023-05-12T00:57:45.662Z,9.41
2023-05-12T01:00:14.193Z,9.36
2023-05-12T01:02:42.382Z,9.31
2023-05-12T01:05:10.146Z,9.26
2023-05-12T01:07:37.761Z,9.25
2023-05-12T01:10:05.362Z,9.24
2023-05-12T01:12:34.917Z,9.24
2023-05-12T01:15:02.812Z,9.25
2023-05-12T01:17:32.979Z,9.24
2023-05-12T01:20:01.843Z,9.22
2023-05-12T01:22:31.378Z,9.19
2023-05-12T01:25:00.038Z,9.16
2023-05-12T01:27:29.002Z,9.15
2023-05-12T01:29:59.048Z,9.16
2023-05-12T01:32:26.569Z,9.17
2023-05-12T01:34:53.775Z,9.18
2023-05-12T01:37:21.336Z,9.16
2023-05-12T01:39:48.621Z,9.13
2023-05-12T01:42:20.406Z,9.08
2023-05-12T01:44:47.736Z,9.02
2023-05-12T01:47:16.174Z,8.95
2023-05-12T01:49:49.252Z,8.90
2023-05-12T01:52:16.656Z,8.87
2023-05-12T01:54:43.780Z,8.82
2023-05-12T01:57:11.455Z,8.78
2023-05-12T01:59:38.787Z,8.72
2023-05-12T02:02:06.765Z,8.70
2023-05-12T02:04:34.816Z,8.69
2023-05-12T02:07:02.437Z,8.68
2023-05-12T02:09:29.592Z,8.66
2023-05-12T02:12:00.107Z,8.62
2023-05-12T02:14:27.041Z,8.59
2023-05-12T02:16:55.653Z,8.57
2023-05-12T02:19:23.661Z,8.56
2023-05-12T02:21:50.587Z,8.54
2023-05-12T02:24:17.621Z,8.52
2023-05-12T02:26:45.115Z,8.50
2023-05-12T02:29:13.183Z,8.48
2023-05-12T02:31:40.369Z,8.52
2023-05-12T02:34:16.082Z,8.59
2023-05-12T02:36:42.996Z,8.68
2023-05-12T02:39:10.906Z,8.78
2023-05-12T02:41:37.899Z,8.85
2023-05-12T02:44:05.340Z,8.89
2023-05-12T02:46:32.443Z,8.92
2023-05-12T02:48:59.482Z,8.93
2023-05-12T02:51:26.455Z,8.93
2023-05-12T02:53:53.404Z,8.90
2023-05-12T02:56:20.909Z,8.83
2023-05-12T02:58:48.243Z,8.77
2023-05-12T03:01:15.188Z,8.74
2023-05-12T03:03:42.524Z,8.70
2023-05-12T03:06:09.976Z,8.66
2023-05-12T03:08:37.080Z,8.64
2023-05-12T03:11:04.391Z,8.64
2023-05-12T03:13:31.541Z,8.64
2023-05-12T03:16:01.772Z,8.64
2023-05-12T03:18:29.994Z,8.65
2023-05-12T03:20:57.292Z,8.71
2023-05-12T03:23:24.850Z,8.82
2023-05-12T03:25:51.817Z,8.95
2023-05-12T03:28:19.209Z,9.06
2023-05-12T03:30:46.129Z,9.20
2023-05-12T03:33:13.191Z,9.32
2023-05-12T03:35:40.166Z,9.41
2023-05-12T03:38:07.264Z,9.48
2023-05-12T03:40:34.194Z,9.54
2023-05-12T03:43:01.174Z,9.58
2023-05-12T03:45:28.203Z,9.61
2023-05-12T03:47:55.449Z,9.65
2023-05-12T03:50:22.570Z,9.73
2023-05-12T03:52:49.581Z,9.80
2023-05-12T03:55:16.908Z,9.88
2023-05-12T03:57:44.042Z,9.96
2023-05-12T04:00:11.888Z,10.02
2023-05-12T04:02:44.200Z,10.09
2023-05-12T04:05:11.318Z,10.15
2023-05-12T04:07:38.479Z,10.23
2023-05-12T04:10:05.865Z,10.30
2023-05-12T04:12:33.053Z,10.38
2023-05-12T04:15:00.475Z,10.48
2023-05-12T04:17:27.514Z,10.57
2023-05-12T04:19:54.631Z,10.67
2023-05-12T04:22:23.443Z,10.76
2023-05-12T04:24:52.154Z,10.85
2023-05-12T04:27:19.246Z,10.93
2023-05-12T04:29:46.197Z,11.02
2023-05-12T04:32:13.579Z,11.10
2023-05-12T04:34:40.710Z,11.20
2023-05-12T04:37:08.361Z,11.29
2023-05-12T04:39:35.575Z,11.36
2023-05-12T04:42:03.256Z,11.42
2023-05-12T04:44:32.684Z,11.51
2023-05-12T04:47:00.228Z,11.60
2023-05-12T04:49:27.272Z,11.66
2023-05-12T04:51:54.490Z,11.75
2023-05-12T04:54:21.956Z,11.84
2023-05-12T04:56:49.288Z,11.94
2023-05-12T04:59:16.289Z,12.03
2023-05-12T05:01:44.201Z,12.13
2023-05-12T05:04:11.099Z,12.22
2023-05-12T05:06:38.030Z,12.30
2023-05-12T05:09:05.874Z,12.38
2023-05-12T05:11:32.838Z,12.47
2023-05-12T05:13:59.965Z,12.54
2023-05-12T05:16:28.448Z,12.62
2023-05-12T05:18:58.623Z,12.70
2023-05-12T05:21:26.883Z,12.78
2023-05-12T05:23:54.487Z,12.88
2023-05-12T05:26:22.355Z,12.96
2023-05-12T05:28:55.509Z,13.04
2023-05-12T05:31:24.354Z,13.13
2023-05-12T05:33:51.745Z,13.21
2023-05-12T05:36:20.890Z,13.30
2023-05-12T05:38:48.980Z,13.40
2023-05-12T05:41:16.284Z,13.49
2023-05-12T05:43:43.255Z,13.56
2023-05-12T05:46:10.445Z,13.65
2023-05-12T05:48:38.626Z,13.73
2023-05-12T05:51:06.749Z,13.82
2023-05-12T05:53:33.791Z,13.90
2023-05-12T05:56:01.550Z,13.99
2023-05-12T05:58:28.925Z,14.10
2023-05-12T06:00:56.118Z,14.20
2023-05-12T06:03:23.608Z,14.29
2023-05-12T06:05:50.729Z,14.39
2023-05-12T06:08:18.050Z,14.48
2023-05-12T06:10:45.504Z,14.57
2023-05-12T06:13:12.557Z,14.67
2023-05-12T06:15:39.517Z,14.77
2023-05-12T06:18:07.120Z,14.87
2023-05-12T06:20:34.843Z,14.96
2023-05-12T06:23:02.137Z,15.05
2023-05-12T06:25:29.318Z,15.13
2023-05-12T06:27:56.384Z,15.22
2023-05-12T06:30:23.799Z,15.30
2023-05-12T06:35:22.543Z,15.50
2023-05-12T06:37:51.072Z,15.59
2023-05-12T06:40:18.247Z,15.67
2023-05-12T06:42:45.284Z,15.75
2023-05-12T06:45:16.285Z,15.82
2023-05-12T06:47:43.572Z,15.90
2023-05-12T06:50:11.021Z,15.99
2023-05-12T06:52:38.316Z,16.07
2023-05-12T06:55:07.155Z,16.15
2023-05-12T06:57:34.061Z,16.24
2023-05-12T07:00:03.219Z,16.31
2023-05-12T07:02:30.838Z,16.37
2023-05-12T07:04:58.013Z,16.43
2023-05-12T07:07:24.967Z,16.47
2023-05-12T07:09:51.899Z,16.53
2023-05-12T07:12:18.812Z,16.60
2023-05-12T07:14:45.778Z,16.66
2023-05-12T07:17:12.762Z,16.70
2023-05-12T07:19:40.281Z,16.74
2023-05-12T07:22:07.330Z,16.80
2023-05-12T07:24:34.359Z,16.87
2023-05-12T07:27:01.376Z,16.93
2023-05-12T07:29:28.484Z,16.99
2023-05-12T07:31:55.934Z,17.06
2023-05-12T07:34:22.912Z,17.13
2023-05-12T07:36:49.965Z,17.18
2023-05-12T07:39:23.361Z,17.22
2023-05-12T07:41:51.159Z,17.27
2023-05-12T07:44:18.064Z,17.33
2023-05-12T07:46:45.029Z,17.39
2023-05-12T07:49:12.086Z,17.44
2023-05-12T07:51:39.571Z,17.52
2023-05-12T07:54:07.309Z,17.63
2023-05-12T07:56:34.372Z,17.73
2023-05-12T07:59:01.326Z,17.82
2023-05-12T08:01:28.230Z,17.86
2023-05-12T08:03:55.319Z,17.92
2023-05-12T08:06:22.264Z,17.98
2023-05-12T08:08:49.942Z,18.05
2023-05-12T08:11:16.905Z,18.14
2023-05-12T08:13:43.735Z,18.24
2023-05-12T08:16:10.573Z,18.33
2023-05-12T08:18:37.534Z,18.44
2023-05-12T08:21:04.391Z,18.56
2023-05-12T08:23:31.351Z,18.68
2023-05-12T08:25:58.202Z,18.79
2023-05-12T08:28:25.032Z,18.86
2023-05-12T08:30:51.887Z,18.93
2023-05-12T08:33:18.738Z,18.97
2023-05-12T08:35:45.611Z,19.00
2023-05-12T08:38:12.483Z,19.03
2023-05-12T08:40:47.140Z,19.09
2023-05-12T08:43:26.112Z,19.17
2023-05-12T08:45:57.736Z,19.27
2023-05-12T08:48:27.612Z,19.36
2023-05-12T08:50:54.588Z,19.43
2023-05-12T08:53:24.510Z,19.44
2023-05-12T08:57:08.984Z,19.49
2023-05-12T08:58:42.016Z,19.57
2023-05-12T09:01:10.324Z,19.64
2023-05-12T09:03:37.212Z,19.75
2023-05-12T09:06:04.401Z,19.87
2023-05-12T09:08:33.266Z,20.02
2023-05-12T09:11:00.596Z,20.16
2023-05-12T09:13:36.789Z,20.29
2023-05-12T09:16:04.243Z,20.39
2023-05-12T09:18:56.967Z,20.43
2023-05-12T09:21:24.074Z,20.42
2023-05-12T09:23:59.162Z,20.48
2023-05-12T09:26:27.131Z,20.59
2023-05-12T09:28:55.163Z,20.70
2023-05-12T09:31:23.140Z,20.76
2023-05-12T09:33:51.055Z,20.83
2023-05-12T09:36:27.042Z,20.93
2023-05-12T09:39:09.256Z,21.04
2023-05-12T09:41:40.135Z,21.11
2023-05-12T09:44:08.587Z,21.18
2023-05-12T09:46:36.075Z,21.22
2023-05-12T09:49:06.597Z,21.21
2023-05-12T09:51:33.512Z,21.18
2023-05-12T09:54:00.943Z,21.21
2023-05-12T09:56:29.390Z,21.31
2023-05-12T09:58:59.515Z,21.43
2023-05-12T10:01:28.076Z,21.53
2023-05-12T10:03:56.725Z,21.65
2023-05-12T10:06:28.937Z,21.75
2023-05-12T10:10:52.427Z,21.76
2023-05-12T10:13:19.383Z,21.95
2023-05-12T10:15:47.436Z,21.95
2023-05-12T10:18:15.069Z,21.84
2023-05-12T10:20:44.168Z,21.78
2023-05-12T10:23:12.794Z,21.81
2023-05-12T10:25:41.453Z,21.94
2023-05-12T10:28:08.985Z,22.10
2023-05-12T10:30:38.168Z,22.26
2023-05-12T10:33:05.960Z,22.40
2023-05-12T10:35:34.362Z,22.54
2023-05-12T10:38:08.873Z,22.69
2023-05-12T10:40:36.088Z,22.83
2023-05-12T10:43:03.310Z,22.94
2023-05-12T10:45:35.627Z,22.99
2023-05-12T10:48:07.101Z,23.05
2023-05-12T10:50:34.130Z,23.12
2023-05-12T10:53:01.053Z,23.18
2023-05-12T10:55:35.973Z,23.22
2023-05-12T10:58:10.893Z,23.19
2023-05-12T11:00:46.778Z,23.13
2023-05-12T11:03:15.260Z,23.11
2023-05-12T11:05:44.187Z,23.01
2023-05-12T11:08:11.848Z,22.88
2023-05-12T11:10:41.680Z,22.80
2023-05-12T11:13:08.625Z,22.71
2023-05-12T11:15:35.465Z,22.70
2023-05-12T11:18:03.308Z,22.74
2023-05-12T11:20:31.044Z,22.83
2023-05-12T11:22:58.168Z,22.96
2023-05-12T11:25:27.403Z,23.13
2023-05-12T11:27:54.592Z,23.32
2023-05-12T11:30:21.953Z,23.48
2023-05-12T11:32:48.901Z,23.60
2023-05-12T11:35:17.749Z,23.75
2023-05-12T11:37:45.448Z,23.87
2023-05-12T11:40:16.519Z,23.95
2023-05-12T11:42:48.310Z,24.03
2023-05-12T11:45:22.488Z,24.16
2023-05-12T11:47:49.527Z,24.27
2023-05-12T11:50:23.592Z,24.38
2023-05-12T11:52:51.577Z,24.44
2023-05-12T11:55:23.630Z,24.49
2023-05-12T11:57:58.860Z,24.53
2023-05-12T12:00:33.232Z,24.56
2023-05-12T12:03:13.967Z,24.43
2023-05-12T12:05:42.030Z,24.18
2023-05-12T12:08:13.693Z,24.03
2023-05-12T12:10:47.210Z,23.95
2023-05-12T12:13:23.133Z,23.97
2023-05-12T12:15:50.852Z,24.05
2023-05-12T12:18:19.178Z,24.08
2023-05-12T12:20:49.089Z,24.06
2023-05-12T12:23:16.045Z,24.05
2023-05-12T12:25:43.672Z,24.08
2023-05-12T12:28:10.800Z,24.08
2023-05-12T12:30:37.960Z,24.08
2023-05-12T12:33:04.976Z,24.18
2023-05-12T12:35:31.984Z,24.36
2023-05-12T12:37:59.498Z,24.54
2023-05-12T12:40:26.328Z,24.73
2023-05-12T12:42:53.538Z,24.97
2023-05-12T12:45:20.724Z,25.23
2023-05-12T12:47:47.759Z,25.46
2023-05-12T12:50:15.036Z,25.67
2023-05-12T12:52:42.032Z,25.88
2023-05-12T12:55:10.026Z,26.08
2023-05-12T12:57:37.048Z,26.18
2023-05-12T13:00:04.999Z,26.20
2023-05-12T13:02:31.898Z,26.27
2023-05-12T13:04:58.922Z,26.36
2023-05-12T13:07:26.028Z,26.34
2023-05-12T13:09:53.097Z,26.27
2023-05-12T13:12:19.891Z,26.26
2023-05-12T13:14:46.748Z,26.27
2023-05-12T13:17:13.553Z,26.29
2023-05-12T13:19:40.736Z,26.37
2023-05-12T13:22:07.688Z,26.45
2023-05-12T13:24:34.540Z,26.46
2023-05-12T13:27:01.392Z,26.43
2023-05-12T13:29:28.441Z,26.27
2023-05-12T13:31:55.580Z,26.12
2023-05-12T13:34:22.548Z,26.01
2023-05-12T13:36:49.572Z,26.05
2023-05-12T13:39:18.411Z,26.20
2023-05-12T13:41:46.565Z,26.31
2023-05-12T13:44:13.426Z,26.41
2023-05-12T13:46:40.913Z,26.53
2023-05-12T13:49:07.938Z,26.80
2023-05-12T13:51:34.915Z,27.65
2023-05-12T13:54:01.885Z,29.06
2023-05-12T13:56:28.694Z,30.77
2023-05-12T13:58:55.561Z,32.30
2023-05-12T14:01:22.535Z,33.86
2023-05-12T14:03:49.556Z,35.28
2023-05-12T14:06:16.465Z,36.62
2023-05-12T14:08:43.338Z,37.72
2023-05-12T14:11:10.282Z,38.63
2023-05-12T14:13:37.257Z,39.37
2023-05-12T14:16:04.897Z,39.35
2023-05-12T14:18:32.455Z,38.39
2023-05-12T14:20:59.513Z,37.00
2023-05-12T14:23:26.459Z,35.56
2023-05-12T14:25:53.407Z,34.16
2023-05-12T14:28:20.413Z,32.83
2023-05-12T14:30:48.932Z,31.69
2023-05-12T14:33:15.827Z,30.73
2023-05-12T14:35:44.718Z,29.95
2023-05-12T14:38:15.201Z,29.80
2023-05-12T14:40:42.702Z,30.73
2023-05-12T14:43:09.675Z,32.09
2023-05-12T14:45:36.578Z,33.35
2023-05-12T14:48:03.657Z,34.57
2023-05-12T14:50:30.674Z,35.59
2023-05-12T14:52:57.703Z,36.44
2023-05-12T14:55:25.396Z,37.12
2023-05-12T14:57:52.365Z,37.54
2023-05-12T15:00:23.561Z,37.22
2023-05-12T15:02:50.538Z,36.42
2023-05-12T15:05:17.458Z,36.14
2023-05-12T15:07:44.408Z,36.21
2023-05-12T15:10:11.317Z,36.34
2023-05-12T15:12:38.135Z,36.68
2023-05-12T15:15:08.533Z,36.84
2023-05-12T15:17:35.677Z,36.56
2023-05-12T15:20:03.855Z,35.81
2023-05-12T15:22:31.689Z,35.10
2023-05-12T15:24:59.161Z,34.90
2023-05-12T15:27:26.711Z,35.05
2023-05-12T15:29:54.076Z,35.42
2023-05-12T15:32:21.012Z,35.72
2023-05-12T15:34:47.957Z,36.14
2023-05-12T15:37:14.860Z,36.59
2023-05-12T15:39:41.697Z,36.83
2023-05-12T15:42:09.407Z,36.85
2023-05-12T15:44:36.462Z,36.96
2023-05-12T15:47:03.527Z,37.18
2023-05-12T15:49:30.459Z,37.42
2023-05-12T15:51:57.408Z,37.56
2023-05-12T15:54:26.615Z,37.60
2023-05-12T15:56:53.445Z,37.62
2023-05-12T15:59:20.415Z,37.57
2023-05-12T16:01:47.362Z,37.57
2023-05-12T16:04:14.387Z,37.63
2023-05-12T16:06:41.298Z,37.66
2023-05-12T16:09:09.566Z,37.60
2023-05-12T16:11:36.525Z,37.47
2023-05-12T16:14:03.394Z,37.48
2023-05-12T16:16:30.527Z,37.44
2023-05-12T16:18:57.867Z,37.26
2023-05-12T16:21:24.895Z,36.94
2023-05-12T16:23:51.808Z,36.63
2023-05-12T16:26:19.469Z,36.25
2023-05-12T16:28:46.386Z,35.60
2023-05-12T16:31:18.020Z,34.80
2023-05-12T16:33:45.242Z,34.07
2023-05-12T16:36:12.129Z,33.36
2023-05-12T16:38:38.968Z,32.64
2023-05-12T16:41:05.908Z,31.94
2023-05-12T16:43:32.764Z,31.28
2023-05-12T16:46:01.335Z,30.76
2023-05-12T16:48:33.603Z,30.29
2023-05-12T16:51:02.551Z,29.73
2023-05-12T16:53:30.201Z,29.27
2023-05-12T16:55:58.093Z,28.83
2023-05-12T16:58:26.133Z,28.51
2023-05-12T17:00:53.173Z,28.21
2023-05-12T17:03:20.228Z,27.88
2023-05-12T17:05:53.311Z,27.54
2023-05-12T17:08:27.328Z,27.15
2023-05-12T17:10:54.483Z,26.77
2023-05-12T17:13:21.623Z,26.51
2023-05-12T17:15:48.632Z,26.21
2023-05-12T17:18:15.558Z,25.91
2023-05-12T17:20:42.358Z,25.70
2023-05-12T17:23:09.614Z,25.54
2023-05-12T17:25:36.800Z,25.31
2023-05-12T17:28:04.632Z,25.04
2023-05-12T17:30:32.132Z,24.79
2023-05-12T17:32:58.996Z,24.55
2023-05-12T17:35:25.974Z,24.37
2023-05-12T17:37:55.590Z,24.21
2023-05-12T17:40:22.684Z,24.03
2023-05-12T17:42:50.386Z,23.81
2023-05-12T17:45:17.575Z,23.57
2023-05-12T17:47:45.016Z,23.36
2023-05-12T17:50:12.822Z,23.17
2023-05-12T17:52:39.898Z,22.97
2023-05-12T17:55:07.130Z,22.79
2023-05-12T17:57:34.453Z,22.63
2023-05-12T18:00:05.795Z,22.46
2023-05-12T18:02:41.264Z,22.30
2023-05-12T18:05:09.165Z,22.20
2023-05-12T18:07:36.352Z,22.09
2023-05-12T18:10:03.341Z,21.95
2023-05-12T18:12:30.230Z,21.81
2023-05-12T18:14:57.257Z,21.69
2023-05-12T18:17:24.279Z,21.59
2023-05-12T18:19:51.474Z,21.53
2023-05-12T18:22:18.520Z,21.44
2023-05-12T18:24:45.638Z,21.30
2023-05-12T18:27:12.544Z,21.20
2023-05-12T18:29:39.306Z,21.12
2023-05-12T18:32:06.237Z,21.01
2023-05-12T18:34:33.704Z,20.88
2023-05-12T18:37:00.795Z,20.80
2023-05-12T18:39:28.419Z,20.72
2023-05-12T18:41:55.494Z,20.64
2023-05-12T18:44:22.442Z,20.56
2023-05-12T18:46:49.353Z,20.47
2023-05-12T18:49:16.518Z,20.35
2023-05-12T18:51:43.488Z,20.22
2023-05-12T18:54:10.718Z,20.08
2023-05-12T18:56:37.608Z,19.99
2023-05-12T18:59:04.675Z,19.87
2023-05-12T19:01:32.010Z,19.80
2023-05-12T19:03:59.191Z,19.73
2023-05-12T19:06:26.841Z,19.64
2023-05-12T19:08:53.930Z,19.57
2023-05-12T19:11:21.122Z,19.51
2023-05-12T19:13:50.734Z,19.42
2023-05-12T19:16:18.469Z,19.34
2023-05-12T19:18:46.054Z,19.25
2023-05-12T19:21:13.156Z,19.15
2023-05-12T19:23:40.177Z,19.02
2023-05-12T19:26:07.434Z,18.93
2023-05-12T19:28:34.386Z,18.87
2023-05-12T19:31:01.363Z,18.82
2023-05-12T19:33:29.526Z,18.75
2023-05-12T19:35:56.746Z,18.73
2023-05-12T19:38:23.930Z,18.72
2023-05-12T19:40:50.961Z,18.68
2023-05-12T19:43:17.932Z,18.66
2023-05-12T19:45:44.825Z,18.63
2023-05-12T19:48:12.007Z,18.57
2023-05-12T19:50:39.125Z,18.49
2023-05-12T19:53:06.067Z,18.41
2023-05-12T19:55:33.159Z,18.32
2023-05-12T19:58:02.045Z,18.23
2023-05-12T20:00:28.988Z,18.15
2023-05-12T20:02:56.063Z,18.06
2023-05-12T20:05:23.415Z,17.97
2023-05-12T20:07:51.153Z,17.88
2023-05-12T20:10:18.281Z,17.80
2023-05-12T20:12:45.097Z,17.72
2023-05-12T20:15:12.192Z,17.64
2023-05-12T20:17:39.179Z,17.59
2023-05-12T20:20:07.186Z,17.54
2023-05-12T20:22:34.111Z,17.48
2023-05-12T20:25:04.516Z,17.42
2023-05-12T20:27:32.239Z,17.34
2023-05-12T20:29:59.229Z,17.30
2023-05-12T20:32:26.193Z,17.25
2023-05-12T20:34:53.115Z,17.21
2023-05-12T20:37:20.731Z,17.17
2023-05-12T20:39:47.660Z,17.10
2023-05-12T20:42:14.720Z,17.00
2023-05-12T20:44:42.434Z,16.89
2023-05-12T20:47:09.977Z,16.78
2023-05-12T20:49:37.103Z,16.68
2023-05-12T20:52:04.152Z,16.60
2023-05-12T20:54:31.011Z,16.50
2023-05-12T20:56:57.868Z,16.43
2023-05-12T20:59:24.801Z,16.38
2023-05-12T21:01:51.730Z,16.33
2023-05-12T21:04:18.803Z,16.27
2023-05-12T21:06:45.796Z,16.20
2023-05-12T21:09:12.667Z,16.12
2023-05-12T21:11:39.615Z,16.06
2023-05-12T21:14:06.512Z,16.02
2023-05-12T21:16:33.609Z,15.96
2023-05-12T21:19:00.577Z,15.86
2023-05-12T21:21:28.800Z,15.71
2023-05-12T21:23:55.838Z,15.63
2023-05-12T21:26:22.739Z,15.57
2023-05-12T21:28:49.577Z,15.52
2023-05-12T21:31:16.526Z,15.46
2023-05-12T21:33:43.499Z,15.36
2023-05-12T21:36:10.303Z,15.26
2023-05-12T21:38:37.194Z,15.18
2023-05-12T21:41:04.248Z,15.09
2023-05-12T21:43:31.263Z,14.99
2023-05-12T21:46:03.111Z,14.93
2023-05-12T21:48:30.084Z,14.86
2023-05-12T21:50:59.112Z,14.81
2023-05-12T21:53:26.109Z,14.74
2023-05-12T21:55:53.265Z,14.70
2023-05-12T21:58:20.159Z,14.67
2023-05-12T22:00:47.095Z,14.63
2023-05-12T22:03:14.152Z,14.61
2023-05-12T22:05:41.037Z,14.58
2023-05-12T22:08:07.892Z,14.56
2023-05-12T22:10:34.753Z,14.54
2023-05-12T22:13:01.796Z,14.51
2023-05-12T22:15:28.940Z,14.47
2023-05-12T22:17:55.908Z,14.42
2023-05-12T22:20:23.474Z,14.38
2023-05-12T22:22:50.473Z,14.33
2023-05-12T22:25:17.357Z,14.27
2023-05-12T22:28:37.456Z,14.06
2023-05-12T22:31:04.376Z,14.19
2023-05-12T22:33:32.519Z,14.18
2023-05-12T22:36:00.302Z,14.14
2023-05-12T22:38:27.676Z,14.08
2023-05-12T22:40:54.557Z,14.02
2023-05-12T22:43:21.508Z,14.00
2023-05-12T22:45:52.260Z,13.97
2023-05-12T22:48:19.829Z,13.92
2023-05-12T22:50:46.654Z,13.88
2023-05-12T22:53:13.674Z,13.84
2023-05-12T22:55:40.548Z,13.79
2023-05-12T22:58:07.561Z,13.75
2023-05-12T23:00:34.527Z,13.71
2023-05-12T23:03:03.415Z,13.69
2023-05-12T23:05:30.495Z,13.67
2023-05-12T23:07:57.540Z,13.68
2023-05-12T23:10:24.624Z,13.69
2023-05-12T23:12:51.669Z,13.68
2023-05-12T23:15:18.642Z,13.67
2023-05-12T23:17:45.535Z,13.64
2023-05-12T23:20:12.951Z,13.59
2023-05-12T23:22:39.784Z,13.52
2023-05-12T23:25:07.345Z,13.45
2023-05-12T23:27:34.362Z,13.40
2023-05-12T23:30:01.169Z,13.37
2023-05-12T23:32:28.274Z,13.34
2023-05-12T23:34:55.252Z,13.30
2023-05-12T23:37:22.191Z,13.25
2023-05-12T23:39:49.152Z,13.20
2023-05-12T23:42:17.237Z,13.17
2023-05-12T23:44:44.152Z,13.11
2023-05-12T23:47:11.038Z,13.07
2023-05-12T23:49:38.010Z,13.04
2023-05-12T23:52:05.109Z,13.02
2023-05-12T23:54:32.027Z,13.04
2023-05-12T23:56:58.851Z,13.08
2023-05-12T23:59:25.697Z,13.08
